Biggs Army Air Field (Fort Bliss)
KBIF : now visible

Airfield :











YOU CAN JOIN US ON...

 
LOGIN :

Register | Disclaimer

   EN    FR    IT 

 









Legend :    VFR   Marginal VFR   IFR   Intensive IFR   Very Intensive IFR
Visi :
Ceiling :
>= 8 km
>= 3000ft
5 to 8 km
1000 to 3000 ft
1500m to 5 km
500 to 1000 ft
800 to 1500m
200 to 500 ft
< 800m
< 200 ft
Symbols :   Thunderstorms  Fog  Heavy snow  Heavy precipitations  Wind > 20 kt






- Airport Elevation : 3946 ft


KBIF - Biggs Army Air Field (Fort Bliss)

CURRENT METAR :
  • 190858Z AUTO 10013KT 10SM SCT130 BKN150 BKN200 09/M04 A3002 RMK AO2 SLP126 T00921044 52019 $

EXPIRED METARs :
  • 190758Z AUTO 08008G17KT 10SM OVC120 10/M04 A3000 RMK AO2 SLP119 T01031045 $
  • 190658Z AUTO 08010KT 9SM OVC120 12/M05 A2999 RMK AO2 SLP116 T01181053 402121032 $

TAF COR TAF KBIF
Valid from the 18 at 06:00 until the 19 at 12:00 UTC


181314Z 1806/1912 VRB06KT 9999 SKC QNH3002INS
BECMG 1823/1824 25010KT 9999 FEW005 BKN080 QNH2984INS TX26/1822Z TN07/1906Z LAST NO AMDS AFT 1813 NEXT 1914
KZAB FIR / North America



MET'MAP, your aeronautical weather chart ! - Copyright ORBIFLY December 2007 - Disclaimer

ORBIFLY MET'MAP TEAM :

Programming & Development : Alexandra Zaïnal
Concept & original design : Baudouin d'Aumeries
Assistance for programming : Marc-Olivier Méhu
Technical & hardware support : Manuel Goepfert

Contact : metmap@orbifly.com




SOURCES & CREDITS :

   NOAA       Earth
Advisory